메인 페이지
METAR-TAF:

METAR-TAF

공항 :

Trent Lott International Airport

Pascagoula, 미시시피, 미국

위도: 30-27-49N, 경도: 088-31-55W, 고도: 5m

현재 날씨관측

예보는 15분 전, 07:32시(UTC)에 발표되었습니다.
무풍
온도 20°C
습도 88%
기압 1016 hPa
시정: 2.8km
고도 1200ft 상공 구름 보통
박무

METAR: KPQL 200732Z AUTO 00000KT 1 3/4SM BR SCT012 20/18 A2999 RMK AO2 T02000183

시각: 02:47 (07:47 UTC)


TAF: 누락

4,000개 이상의 공항 관측 자료 및 예보 (METAR 및 TAF 보고).

지도상에서 검색 가능한 기상관측소가 노란 점과 빨간 점으로 표시되어 있습니다.

기상관측소 명을 보려면 표시 위로 마우스를 이동하세요.

날씨 관측과 예보를 보려면 클릭하세요.

지도 변경 : 확대하려면 엑스 표시가 있는 녹색 버튼, 축소하려면 빼기 표시가 있는 녹색 버튼, 다음 페이지의 지도를 보려면 녹색 화살표를 클릭하세요.


METAR-TAF: